sensor_id;sensor_type;location;lat;lon;timestamp;pressure;altitude;pressure_sealevel;temperature;humidity
61018;BME280;48171;51.550;5.434;2023-05-20T00:02:07;102388.06;;;12.50;72.38
61018;BME280;48171;51.550;5.434;2023-05-20T00:04:32;102388.94;;;12.47;72.74
61018;BME280;48171;51.550;5.434;2023-05-20T00:06:57;102385.31;;;12.42;73.31
61018;BME280;48171;51.550;5.434;2023-05-20T00:09:23;102389.75;;;12.41;73.71
61018;BME280;48171;51.550;5.434;2023-05-20T00:11:48;102379.09;;;12.37;74.05
61018;BME280;48171;51.550;5.434;2023-05-20T00:14:13;102377.34;;;12.37;73.67
61018;BME280;48171;51.550;5.434;2023-05-20T00:16:38;102384.38;;;12.35;74.73
61018;BME280;48171;51.550;5.434;2023-05-20T00:19:04;102379.91;;;12.31;75.27
61018;BME280;48171;51.550;5.434;2023-05-20T00:21:29;102389.59;;;12.26;74.40
61018;BME280;48171;51.550;5.434;2023-05-20T00:23:55;102389.53;;;12.21;75.44
61018;BME280;48171;51.550;5.434;2023-05-20T00:26:20;102388.63;;;12.19;76.23
61018;BME280;48171;51.550;5.434;2023-05-20T00:28:46;102396.59;;;12.18;76.45
61018;BME280;48171;51.550;5.434;2023-05-20T00:31:11;102385.91;;;12.13;76.81
61018;BME280;48171;51.550;5.434;2023-05-20T00:33:37;102389.44;;;12.12;76.71
61018;BME280;48171;51.550;5.434;2023-05-20T00:36:02;102384.06;;;12.05;76.75
61018;BME280;48171;51.550;5.434;2023-05-20T00:38:27;102380.50;;;12.06;77.11
61018;BME280;48171;51.550;5.434;2023-05-20T00:40:53;102386.66;;;12.01;78.04
61018;BME280;48171;51.550;5.434;2023-05-20T00:43:18;102376.06;;;12.00;77.12
61018;BME280;48171;51.550;5.434;2023-05-20T00:45:45;102375.97;;;11.94;77.24
61018;BME280;48171;51.550;5.434;2023-05-20T00:48:11;102380.31;;;11.89;78.55
61018;BME280;48171;51.550;5.434;2023-05-20T00:50:37;102381.16;;;11.86;78.28
61018;BME280;48171;51.550;5.434;2023-05-20T00:53:02;102381.09;;;11.83;78.70
61018;BME280;48171;51.550;5.434;2023-05-20T00:55:28;102385.50;;;11.82;78.28
61018;BME280;48171;51.550;5.434;2023-05-20T00:57:53;102378.44;;;11.81;78.35
61018;BME280;48171;51.550;5.434;2023-05-20T01:00:19;102382.81;;;11.78;78.73
61018;BME280;48171;51.550;5.434;2023-05-20T01:02:44;102381.91;;;11.77;79.17
61018;BME280;48171;51.550;5.434;2023-05-20T01:05:10;102379.22;;;11.74;79.51
61018;BME280;48171;51.550;5.434;2023-05-20T01:07:35;102377.44;;;11.72;80.35
61018;BME280;48171;51.550;5.434;2023-05-20T01:10:01;102374.72;;;11.66;80.46
61018;BME280;48171;51.550;5.434;2023-05-20T01:12:34;102373.81;;;11.65;80.24
61018;BME280;48171;51.550;5.434;2023-05-20T01:15:10;102371.97;;;11.61;80.99
61018;BME280;48171;51.550;5.434;2023-05-20T01:17:45;102368.44;;;11.59;80.78
61018;BME280;48171;51.550;5.434;2023-05-20T01:20:12;102371.94;;;11.56;81.33
61018;BME280;48171;51.550;5.434;2023-05-20T01:22:48;102366.59;;;11.55;81.37
61018;BME280;48171;51.550;5.434;2023-05-20T01:25:14;102366.59;;;11.52;82.06
61018;BME280;48171;51.550;5.434;2023-05-20T01:27:39;102364.81;;;11.52;81.10
61018;BME280;48171;51.550;5.434;2023-05-20T01:30:05;102365.66;;;11.50;81.55
61018;BME280;48171;51.550;5.434;2023-05-20T01:32:36;102362.13;;;11.51;81.26
61018;BME280;48171;51.550;5.434;2023-05-20T01:35:03;102364.78;;;11.49;81.88
61018;BME280;48171;51.550;5.434;2023-05-20T01:37:30;102362.94;;;11.44;82.30
61018;BME280;48171;51.550;5.434;2023-05-20T01:39:56;102358.47;;;11.41;83.31
61018;BME280;48171;51.550;5.434;2023-05-20T01:42:22;102357.56;;;11.39;83.04
61018;BME280;48171;51.550;5.434;2023-05-20T01:44:50;102346.06;;;11.37;83.99
61018;BME280;48171;51.550;5.434;2023-05-20T01:47:15;102350.44;;;11.32;83.09
61018;BME280;48171;51.550;5.434;2023-05-20T01:49:41;102353.03;;;11.30;83.59
61018;BME280;48171;51.550;5.434;2023-05-20T01:52:06;102349.47;;;11.28;83.39
61018;BME280;48171;51.550;5.434;2023-05-20T01:54:31;102346.84;;;11.28;83.34
61018;BME280;48171;51.550;5.434;2023-05-20T01:56:57;102355.63;;;11.26;83.84
61018;BME280;48171;51.550;5.434;2023-05-20T01:59:22;102346.75;;;11.22;84.65
61018;BME280;48171;51.550;5.434;2023-05-20T02:01:47;102349.38;;;11.20;83.88
61018;BME280;48171;51.550;5.434;2023-05-20T02:04:12;102348.44;;;11.18;84.15
61018;BME280;48171;51.550;5.434;2023-05-20T02:06:38;102344.88;;;11.13;84.18
61018;BME280;48171;51.550;5.434;2023-05-20T02:09:04;102351.91;;;11.14;84.37
61018;BME280;48171;51.550;5.434;2023-05-20T02:11:29;102344.84;;;11.12;84.68
61018;BME280;48171;51.550;5.434;2023-05-20T02:13:54;102341.31;;;11.11;85.43
61018;BME280;48171;51.550;5.434;2023-05-20T02:16:20;102346.53;;;11.08;85.13
61018;BME280;48171;51.550;5.434;2023-05-20T02:18:45;102352.72;;;11.07;85.51
61018;BME280;48171;51.550;5.434;2023-05-20T02:21:10;102346.50;;;11.05;85.30
61018;BME280;48171;51.550;5.434;2023-05-20T02:23:35;102345.53;;;11.00;85.36
61018;BME280;48171;51.550;5.434;2023-05-20T02:26:01;102339.31;;;10.96;85.92
61018;BME280;48171;51.550;5.434;2023-05-20T02:28:26;102348.13;;;10.95;86.60
61018;BME280;48171;51.550;5.434;2023-05-20T02:30:51;102327.78;;;10.91;86.12
61018;BME280;48171;51.550;5.434;2023-05-20T02:33:20;102329.56;;;10.94;86.79
61018;BME280;48171;51.550;5.434;2023-05-20T02:35:45;102332.16;;;10.89;86.82
61018;BME280;48171;51.550;5.434;2023-05-20T02:38:11;102333.03;;;10.90;87.42
61018;BME280;48171;51.550;5.434;2023-05-20T02:40:36;102345.38;;;10.89;87.67
61018;BME280;48171;51.550;5.434;2023-05-20T02:43:02;102341.81;;;10.87;88.42
61018;BME280;48171;51.550;5.434;2023-05-20T02:45:27;102340.03;;;10.86;87.90
61018;BME280;48171;51.550;5.434;2023-05-20T02:47:53;102336.44;;;10.82;88.47
61018;BME280;48171;51.550;5.434;2023-05-20T02:50:18;102340.00;;;10.83;88.90
61018;BME280;48171;51.550;5.434;2023-05-20T02:52:43;102333.75;;;10.79;88.30
61018;BME280;48171;51.550;5.434;2023-05-20T02:55:09;102333.75;;;10.79;88.90
61018;BME280;48171;51.550;5.434;2023-05-20T02:57:35;102328.47;;;10.79;88.28
61018;BME280;48171;51.550;5.434;2023-05-20T03:00:03;102327.53;;;10.76;89.21
61018;BME280;48171;51.550;5.434;2023-05-20T03:02:30;102329.28;;;10.75;88.94
61018;BME280;48171;51.550;5.434;2023-05-20T03:04:55;102330.16;;;10.76;89.44
61018;BME280;48171;51.550;5.434;2023-05-20T03:07:20;102331.94;;;10.75;89.38
61018;BME280;48171;51.550;5.434;2023-05-20T03:09:46;102323.94;;;10.72;90.02
61018;BME280;48171;51.550;5.434;2023-05-20T03:12:11;102326.59;;;10.72;90.12
61018;BME280;48171;51.550;5.434;2023-05-20T03:14:37;102324.78;;;10.70;90.34
61018;BME280;48171;51.550;5.434;2023-05-20T03:17:02;102324.75;;;10.68;90.65
61018;BME280;48171;51.550;5.434;2023-05-20T03:19:27;102328.25;;;10.66;90.51
61018;BME280;48171;51.550;5.434;2023-05-20T03:21:52;102317.59;;;10.61;90.49
61018;BME280;48171;51.550;5.434;2023-05-20T03:24:18;102321.16;;;10.63;91.73
61018;BME280;48171;51.550;5.434;2023-05-20T03:26:43;102325.56;;;10.63;90.90
61018;BME280;48171;51.550;5.434;2023-05-20T03:29:10;102324.63;;;10.59;90.91
61018;BME280;48171;51.550;5.434;2023-05-20T03:31:35;102332.47;;;10.56;90.92
61018;BME280;48171;51.550;5.434;2023-05-20T03:34:01;102330.75;;;10.56;91.68
61018;BME280;48171;51.550;5.434;2023-05-20T03:36:26;102334.22;;;10.54;91.45
61018;BME280;48171;51.550;5.434;2023-05-20T03:38:52;102328.88;;;10.51;91.72
61018;BME280;48171;51.550;5.434;2023-05-20T03:41:17;102328.91;;;10.52;92.02
61018;BME280;48171;51.550;5.434;2023-05-20T03:43:43;102326.22;;;10.49;91.89
61018;BME280;48171;51.550;5.434;2023-05-20T03:46:08;102329.69;;;10.48;92.88
61018;BME280;48171;51.550;5.434;2023-05-20T03:48:33;102328.81;;;10.48;92.57
61018;BME280;48171;51.550;5.434;2023-05-20T03:50:58;102330.56;;;10.47;92.61
61018;BME280;48171;51.550;5.434;2023-05-20T03:53:24;102325.25;;;10.46;92.73
61018;BME280;48171;51.550;5.434;2023-05-20T03:55:49;102327.88;;;10.44;93.37
61018;BME280;48171;51.550;5.434;2023-05-20T03:58:14;102322.59;;;10.43;92.93
61018;BME280;48171;51.550;5.434;2023-05-20T04:00:40;102328.78;;;10.46;93.37
61018;BME280;48171;51.550;5.434;2023-05-20T04:03:05;102323.50;;;10.45;93.47
61018;BME280;48171;51.550;5.434;2023-05-20T04:05:31;102334.06;;;10.45;93.23
61018;BME280;48171;51.550;5.434;2023-05-20T04:07:56;102320.81;;;10.43;92.98
61018;BME280;48171;51.550;5.434;2023-05-20T04:10:21;102322.59;;;10.44;93.54
61018;BME280;48171;51.550;5.434;2023-05-20T04:12:47;102320.00;;;10.47;93.35
61018;BME280;48171;51.550;5.434;2023-05-20T04:15:13;102326.19;;;10.48;94.08
61018;BME280;48171;51.550;5.434;2023-05-20T04:17:39;102325.28;;;10.47;93.97
61018;BME280;48171;51.550;5.434;2023-05-20T04:20:05;102334.13;;;10.49;95.13
61018;BME280;48171;51.550;5.434;2023-05-20T04:22:32;102335.03;;;10.50;94.29
61018;BME280;48171;51.550;5.434;2023-05-20T04:24:57;102332.38;;;10.50;94.49
61018;BME280;48171;51.550;5.434;2023-05-20T04:27:23;102328.00;;;10.52;94.35
61018;BME280;48171;51.550;5.434;2023-05-20T04:29:50;102338.63;;;10.53;94.08
61018;BME280;48171;51.550;5.434;2023-05-20T04:32:17;102328.00;;;10.52;94.64
61018;BME280;48171;51.550;5.434;2023-05-20T04:34:43;102332.47;;;10.56;95.25
61018;BME280;48171;51.550;5.434;2023-05-20T04:37:09;102334.25;;;10.55;95.52
61018;BME280;48171;51.550;5.434;2023-05-20T04:39:35;102334.25;;;10.55;95.49
61018;BME280;48171;51.550;5.434;2023-05-20T04:42:01;102335.19;;;10.59;95.22
61018;BME280;48171;51.550;5.434;2023-05-20T04:44:27;102327.25;;;10.59;95.58
61018;BME280;48171;51.550;5.434;2023-05-20T04:46:52;102327.28;;;10.62;95.75
61018;BME280;48171;51.550;5.434;2023-05-20T04:49:17;102322.00;;;10.60;95.78
61018;BME280;48171;51.550;5.434;2023-05-20T04:51:43;102327.31;;;10.64;96.10
61018;BME280;48171;51.550;5.434;2023-05-20T04:54:08;102339.72;;;10.68;94.92
61018;BME280;48171;51.550;5.434;2023-05-20T04:56:34;102330.06;;;10.70;95.51
61018;BME280;48171;51.550;5.434;2023-05-20T04:59:00;102338.94;;;10.73;95.61
61018;BME280;48171;51.550;5.434;2023-05-20T05:01:25;102337.25;;;10.77;95.29
61018;BME280;48171;51.550;5.434;2023-05-20T05:03:51;102335.50;;;10.77;95.42
61018;BME280;48171;51.550;5.434;2023-05-20T05:06:16;102334.63;;;10.80;95.37
61018;BME280;48171;51.550;5.434;2023-05-20T05:08:42;102323.25;;;10.84;95.22
61018;BME280;48171;51.550;5.434;2023-05-20T05:11:07;102318.91;;;10.88;94.81
61018;BME280;48171;51.550;5.434;2023-05-20T05:13:32;102326.00;;;10.90;95.77
61018;BME280;48171;51.550;5.434;2023-05-20T05:15:59;102318.09;;;10.92;96.20
61018;BME280;48171;51.550;5.434;2023-05-20T05:18:24;102315.50;;;10.96;95.48
61018;BME280;48171;51.550;5.434;2023-05-20T05:20:57;102315.53;;;10.98;95.33
61018;BME280;48171;51.550;5.434;2023-05-20T05:23:23;102318.25;;;11.02;95.62
61018;BME280;48171;51.550;5.434;2023-05-20T05:25:51;102320.03;;;11.04;95.92
61018;BME280;48171;51.550;5.434;2023-05-20T05:28:17;102314.84;;;11.10;94.66
61018;BME280;48171;51.550;5.434;2023-05-20T05:30:42;102306.03;;;11.12;94.87
61018;BME280;48171;51.550;5.434;2023-05-20T05:33:07;102315.75;;;11.15;95.30
61018;BME280;48171;51.550;5.434;2023-05-20T05:35:33;102314.94;;;11.17;95.74
61018;BME280;48171;51.550;5.434;2023-05-20T05:37:58;102314.97;;;11.19;96.02
61018;BME280;48171;51.550;5.434;2023-05-20T05:40:23;102319.41;;;11.21;95.65
61018;BME280;48171;51.550;5.434;2023-05-20T05:42:48;102316.81;;;11.26;94.75
61018;BME280;48171;51.550;5.434;2023-05-20T05:45:14;102312.47;;;11.30;94.81
61018;BME280;48171;51.550;5.434;2023-05-20T05:47:39;102310.75;;;11.33;94.16
61018;BME280;48171;51.550;5.434;2023-05-20T05:50:05;102304.56;;;11.33;nan
61018;BME280;48171;51.550;5.434;2023-05-20T05:52:30;102311.75;;;11.41;93.80
61018;BME280;48171;51.550;5.434;2023-05-20T05:54:55;102304.72;;;11.44;93.95
61018;BME280;48171;51.550;5.434;2023-05-20T05:57:21;102313.63;;;11.50;94.84
61018;BME280;48171;51.550;5.434;2023-05-20T05:59:46;102318.97;;;11.55;94.66
61018;BME280;48171;51.550;5.434;2023-05-20T06:02:12;102315.50;;;11.57;93.68
61018;BME280;48171;51.550;5.434;2023-05-20T06:04:38;102323.50;;;11.65;92.16
61018;BME280;48171;51.550;5.434;2023-05-20T06:07:04;102315.59;;;11.68;93.82
61018;BME280;48171;51.550;5.434;2023-05-20T06:09:29;102313.88;;;11.72;95.35
61018;BME280;48171;51.550;5.434;2023-05-20T06:11:54;102310.44;;;11.79;93.49
61018;BME280;48171;51.550;5.434;2023-05-20T06:14:20;102317.53;;;11.81;92.11
61018;BME280;48171;51.550;5.434;2023-05-20T06:16:45;102310.53;;;11.88;93.48
61018;BME280;48171;51.550;5.434;2023-05-20T06:19:11;102313.28;;;11.93;92.75
61018;BME280;48171;51.550;5.434;2023-05-20T06:21:36;102300.09;;;11.99;92.46
61018;BME280;48171;51.550;5.434;2023-05-20T06:24:02;102301.03;;;12.04;91.69
61018;BME280;48171;51.550;5.434;2023-05-20T06:26:28;102295.78;;;12.12;93.01
61018;BME280;48171;51.550;5.434;2023-05-20T06:28:53;102309.13;;;12.18;90.72
61018;BME280;48171;51.550;5.434;2023-05-20T06:31:18;102303.03;;;12.27;90.47
61018;BME280;48171;51.550;5.434;2023-05-20T06:33:44;102292.47;;;12.33;91.15
61018;BME280;48171;51.550;5.434;2023-05-20T06:36:09;102289.00;;;12.40;92.72
61018;BME280;48171;51.550;5.434;2023-05-20T06:38:35;102285.50;;;12.46;88.33
61018;BME280;48171;51.550;5.434;2023-05-20T06:41:01;102284.69;;;12.53;89.26
61018;BME280;48171;51.550;5.434;2023-05-20T06:43:26;102289.16;;;12.57;88.93
61018;BME280;48171;51.550;5.434;2023-05-20T06:45:52;102281.25;;;12.63;88.47
61018;BME280;48171;51.550;5.434;2023-05-20T06:48:18;102277.75;;;12.70;86.72
61018;BME280;48171;51.550;5.434;2023-05-20T06:50:43;102275.16;;;12.75;88.41
61018;BME280;48171;51.550;5.434;2023-05-20T06:53:08;102276.09;;;12.83;87.72
61018;BME280;48171;51.550;5.434;2023-05-20T06:55:34;102274.38;;;12.93;87.29
61018;BME280;48171;51.550;5.434;2023-05-20T06:57:59;102259.34;;;12.96;88.28
61018;BME280;48171;51.550;5.434;2023-05-20T07:00:24;102264.72;;;13.04;86.42
61018;BME280;48171;51.550;5.434;2023-05-20T07:02:50;102273.63;;;13.14;88.10
61018;BME280;48171;51.550;5.434;2023-05-20T07:05:15;102273.63;;;13.18;86.51
61018;BME280;48171;51.550;5.434;2023-05-20T07:07:40;102259.50;;;13.24;84.76
61018;BME280;48171;51.550;5.434;2023-05-20T07:10:06;102267.53;;;13.35;82.86
61018;BME280;48171;51.550;5.434;2023-05-20T07:12:32;102265.78;;;13.38;85.48
61018;BME280;48171;51.550;5.434;2023-05-20T07:14:57;102269.34;;;13.45;83.30
61018;BME280;48171;51.550;5.434;2023-05-20T07:17:23;102263.19;;;13.49;83.03
61018;BME280;48171;51.550;5.434;2023-05-20T07:19:49;102264.09;;;13.56;84.24
61018;BME280;48171;51.550;5.434;2023-05-20T07:22:14;102259.69;;;13.61;81.13
61018;BME280;48171;51.550;5.434;2023-05-20T07:24:39;102257.94;;;13.69;79.46
61018;BME280;48171;51.550;5.434;2023-05-20T07:27:05;102246.44;;;13.73;79.05
61018;BME280;48171;51.550;5.434;2023-05-20T07:29:30;102253.53;;;13.79;80.88
61018;BME280;48171;51.550;5.434;2023-05-20T07:31:55;102243.78;;;13.81;78.23
61018;BME280;48171;51.550;5.434;2023-05-20T07:34:21;102251.78;;;13.87;79.04
61018;BME280;48171;51.550;5.434;2023-05-20T07:36:46;102243.84;;;13.92;77.20
61018;BME280;48171;51.550;5.434;2023-05-20T07:39:12;102253.59;;;13.96;77.51
61018;BME280;48171;51.550;5.434;2023-05-20T07:41:37;102251.81;;;13.96;77.86
61018;BME280;48171;51.550;5.434;2023-05-20T07:44:05;102254.44;;;13.99;75.40
61018;BME280;48171;51.550;5.434;2023-05-20T07:46:33;102241.19;;;14.03;75.07
61018;BME280;48171;51.550;5.434;2023-05-20T07:48:59;102240.31;;;14.07;75.15
61018;BME280;48171;51.550;5.434;2023-05-20T07:51:24;102234.09;;;14.09;75.22
61018;BME280;48171;51.550;5.434;2023-05-20T07:53:49;102233.22;;;14.12;76.65
61018;BME280;48171;51.550;5.434;2023-05-20T07:56:15;102239.41;;;14.17;77.85
61018;BME280;48171;51.550;5.434;2023-05-20T07:58:41;102246.50;;;14.26;76.97
61018;BME280;48171;51.550;5.434;2023-05-20T08:01:06;102234.09;;;14.28;76.13
61018;BME280;48171;51.550;5.434;2023-05-20T08:03:33;102234.13;;;14.32;73.83
61018;BME280;48171;51.550;5.434;2023-05-20T08:05:59;102236.78;;;14.38;74.57
61018;BME280;48171;51.550;5.434;2023-05-20T08:08:24;102230.56;;;14.43;74.75
61018;BME280;48171;51.550;5.434;2023-05-20T08:10:50;102233.22;;;14.50;75.96
61018;BME280;48171;51.550;5.434;2023-05-20T08:13:15;102231.47;;;14.58;72.13
61018;BME280;48171;51.550;5.434;2023-05-20T08:15:40;102225.25;;;14.63;72.13
61018;BME280;48171;51.550;5.434;2023-05-20T08:18:06;102222.56;;;14.70;73.29
61018;BME280;48171;51.550;5.434;2023-05-20T08:20:31;102224.31;;;14.74;70.93
61018;BME280;48171;51.550;5.434;2023-05-20T08:22:56;102224.34;;;14.79;72.55
61018;BME280;48171;51.550;5.434;2023-05-20T08:25:22;102220.78;;;14.80;73.06
61018;BME280;48171;51.550;5.434;2023-05-20T08:27:47;102226.09;;;14.83;72.67
61018;BME280;48171;51.550;5.434;2023-05-20T08:30:13;102213.69;;;14.85;71.57
61018;BME280;48171;51.550;5.434;2023-05-20T08:32:38;102220.75;;;14.91;70.46
61018;BME280;48171;51.550;5.434;2023-05-20T08:35:04;102209.16;;;15.03;72.09
61018;BME280;48171;51.550;5.434;2023-05-20T08:37:29;102204.72;;;15.11;72.52
61018;BME280;48171;51.550;5.434;2023-05-20T08:39:55;102213.56;;;15.17;68.57
61018;BME280;48171;51.550;5.434;2023-05-20T08:42:23;102207.31;;;15.26;70.07
61018;BME280;48171;51.550;5.434;2023-05-20T08:44:50;102207.25;;;15.38;68.19
61018;BME280;48171;51.550;5.434;2023-05-20T08:47:18;102211.66;;;15.47;69.11
61018;BME280;48171;51.550;5.434;2023-05-20T08:49:44;102204.50;;;15.54;67.85
61018;BME280;48171;51.550;5.434;2023-05-20T08:52:10;102204.44;;;15.63;67.60
61018;BME280;48171;51.550;5.434;2023-05-20T08:54:43;102199.06;;;15.69;65.40
61018;BME280;48171;51.550;5.434;2023-05-20T08:57:10;102201.72;;;15.78;65.62
61018;BME280;48171;51.550;5.434;2023-05-20T08:59:41;102198.13;;;15.86;64.82
61018;BME280;48171;51.550;5.434;2023-05-20T09:02:08;102209.63;;;15.92;65.25
61018;BME280;48171;51.550;5.434;2023-05-20T09:04:33;102194.50;;;15.94;64.76
61018;BME280;48171;51.550;5.434;2023-05-20T09:06:59;102205.13;;;15.99;63.14
61018;BME280;48171;51.550;5.434;2023-05-20T09:09:24;102190.00;;;16.03;65.90
61018;BME280;48171;51.550;5.434;2023-05-20T09:11:49;102185.47;;;16.09;62.71
61018;BME280;48171;51.550;5.434;2023-05-20T09:14:15;102181.03;;;16.11;64.05
61018;BME280;48171;51.550;5.434;2023-05-20T09:16:40;102188.13;;;16.12;63.22
61018;BME280;48171;51.550;5.434;2023-05-20T09:19:05;102183.69;;;16.13;63.73
61018;BME280;48171;51.550;5.434;2023-05-20T09:21:31;102176.50;;;16.23;66.04
61018;BME280;48171;51.550;5.434;2023-05-20T09:24:00;102178.19;;;16.30;63.30
61018;BME280;48171;51.550;5.434;2023-05-20T09:26:27;102176.44;;;16.27;64.66
61018;BME280;48171;51.550;5.434;2023-05-20T09:28:55;102172.91;;;16.24;66.60
61018;BME280;48171;51.550;5.434;2023-05-20T09:31:21;102179.91;;;16.35;63.79
61018;BME280;48171;51.550;5.434;2023-05-20T09:33:50;102177.22;;;16.38;62.57
61018;BME280;48171;51.550;5.434;2023-05-20T09:36:18;102169.16;;;16.45;66.14
61018;BME280;48171;51.550;5.434;2023-05-20T09:38:46;102173.50;;;16.53;64.08
61018;BME280;48171;51.550;5.434;2023-05-20T09:41:12;102174.31;;;16.60;63.14
61018;BME280;48171;51.550;5.434;2023-05-20T09:43:41;102180.47;;;16.68;64.13
61018;BME280;48171;51.550;5.434;2023-05-20T09:46:07;102167.06;;;16.74;62.01
61018;BME280;48171;51.550;5.434;2023-05-20T09:48:34;102171.56;;;16.69;61.34
61018;BME280;48171;51.550;5.434;2023-05-20T09:51:04;102176.84;;;16.72;64.78
61018;BME280;48171;51.550;5.434;2023-05-20T09:53:29;102171.56;;;16.68;62.65
61018;BME280;48171;51.550;5.434;2023-05-20T09:55:55;102178.63;;;16.73;60.87
61018;BME280;48171;51.550;5.434;2023-05-20T09:58:22;102175.91;;;16.78;62.03
61018;BME280;48171;51.550;5.434;2023-05-20T10:00:47;102176.66;;;16.92;62.47
61018;BME280;48171;51.550;5.434;2023-05-20T10:03:13;102169.38;;;17.07;63.85
61018;BME280;48171;51.550;5.434;2023-05-20T10:05:41;102158.47;;;17.22;62.18
61018;BME280;48171;51.550;5.434;2023-05-20T10:16:41;102150.94;;;17.52;59.41
61018;BME280;48171;51.550;5.434;2023-05-20T10:22:03;102148.19;;;17.56;60.34
61018;BME280;48171;51.550;5.434;2023-05-20T10:24:30;102147.41;;;17.51;60.02
61018;BME280;48171;51.550;5.434;2023-05-20T10:26:57;102148.38;;;17.44;59.06
61018;BME280;48171;51.550;5.434;2023-05-20T10:29:23;102139.59;;;17.37;57.89
61018;BME280;48171;51.550;5.434;2023-05-20T10:31:51;102139.50;;;17.44;61.32
61018;BME280;48171;51.550;5.434;2023-05-20T10:34:18;102133.97;;;17.56;58.68
61018;BME280;48171;51.550;5.434;2023-05-20T10:36:45;102119.47;;;17.69;61.30
61018;BME280;48171;51.550;5.434;2023-05-20T10:39:15;102133.69;;;17.71;60.50
61018;BME280;48171;51.550;5.434;2023-05-20T10:41:41;102129.38;;;17.64;57.27
61018;BME280;48171;51.550;5.434;2023-05-20T10:44:06;102113.38;;;17.61;57.22
61018;BME280;48171;51.550;5.434;2023-05-20T10:46:33;102123.94;;;17.70;57.98
61018;BME280;48171;51.550;5.434;2023-05-20T10:49:01;102118.47;;;17.76;58.10
61018;BME280;48171;51.550;5.434;2023-05-20T10:51:27;102108.59;;;17.82;57.39
61018;BME280;48171;51.550;5.434;2023-05-20T10:53:54;102124.50;;;17.91;58.08
61018;BME280;48171;51.550;5.434;2023-05-20T10:56:22;102120.78;;;17.99;57.57
61018;BME280;48171;51.550;5.434;2023-05-20T10:58:48;102116.09;;;18.14;63.99
61018;BME280;48171;51.550;5.434;2023-05-20T11:01:15;102117.63;;;18.27;60.79
61018;BME280;48171;51.550;5.434;2023-05-20T11:03:42;102110.34;;;18.34;57.34
61018;BME280;48171;51.550;5.434;2023-05-20T11:06:14;102112.16;;;18.32;56.88
61018;BME280;48171;51.550;5.434;2023-05-20T11:08:40;102110.22;;;18.42;57.84
61018;BME280;48171;51.550;5.434;2023-05-20T11:11:06;102089.56;;;18.48;56.60
61018;BME280;48171;51.550;5.434;2023-05-20T11:13:31;102076.94;;;18.55;57.70
61018;BME280;48171;51.550;5.434;2023-05-20T11:15:57;102090.06;;;18.67;55.60
61018;BME280;48171;51.550;5.434;2023-05-20T11:18:25;102092.78;;;18.64;55.12
61018;BME280;48171;51.550;5.434;2023-05-20T11:20:54;102090.03;;;18.69;55.35
61018;BME280;48171;51.550;5.434;2023-05-20T11:23:19;102095.09;;;18.84;56.96
61018;BME280;48171;51.550;5.434;2023-05-20T11:25:49;102090.41;;;18.94;55.50
61018;BME280;48171;51.550;5.434;2023-05-20T11:28:14;102086.75;;;18.98;54.59
61018;BME280;48171;51.550;5.434;2023-05-20T11:30:43;102067.91;;;19.03;58.76
61018;BME280;48171;51.550;5.434;2023-05-20T11:33:11;102080.09;;;19.17;54.39
61018;BME280;48171;51.550;5.434;2023-05-20T11:35:37;102066.69;;;19.17;53.22
61018;BME280;48171;51.550;5.434;2023-05-20T11:38:09;102081.69;;;19.25;55.60
61018;BME280;48171;51.550;5.434;2023-05-20T11:40:34;102074.06;;;19.45;56.12
61018;BME280;48171;51.550;5.434;2023-05-20T11:43:00;102077.00;;;19.72;54.48
61018;BME280;48171;51.550;5.434;2023-05-20T11:45:26;102073.81;;;19.92;54.43
61018;BME280;48171;51.550;5.434;2023-05-20T11:48:02;102066.91;;;20.16;55.19
61018;BME280;48171;51.550;5.434;2023-05-20T11:50:28;102076.41;;;20.28;53.88
61018;BME280;48171;51.550;5.434;2023-05-20T11:52:58;102060.38;;;20.26;51.68
61018;BME280;48171;51.550;5.434;2023-05-20T11:55:24;102062.31;;;20.19;51.38
61018;BME280;48171;51.550;5.434;2023-05-20T11:57:50;102062.31;;;20.19;52.65
61018;BME280;48171;51.550;5.434;2023-05-20T12:00:16;102053.53;;;20.14;52.77
61018;BME280;48171;51.550;5.434;2023-05-20T12:02:42;102056.94;;;20.19;50.21
61018;BME280;48171;51.550;5.434;2023-05-20T12:05:07;102056.94;;;20.19;50.84
61018;BME280;48171;51.550;5.434;2023-05-20T12:07:33;102047.13;;;20.20;50.87
61018;BME280;48171;51.550;5.434;2023-05-20T12:09:58;102052.06;;;20.34;51.05
61018;BME280;48171;51.550;5.434;2023-05-20T12:12:23;102046.44;;;20.43;52.21
61018;BME280;48171;51.550;5.434;2023-05-20T12:14:49;102054.53;;;20.42;50.21
61018;BME280;48171;51.550;5.434;2023-05-20T12:17:15;102047.38;;;20.42;51.62
61018;BME280;48171;51.550;5.434;2023-05-20T12:19:40;102045.72;;;20.38;51.60
61018;BME280;48171;51.550;5.434;2023-05-20T12:22:05;102044.88;;;20.36;50.85
61018;BME280;48171;51.550;5.434;2023-05-20T12:24:31;102037.53;;;20.43;52.38
61018;BME280;48171;51.550;5.434;2023-05-20T12:26:56;102040.06;;;20.47;51.46
61018;BME280;48171;51.550;5.434;2023-05-20T12:29:21;102026.63;;;20.47;50.96
61018;BME280;48171;51.550;5.434;2023-05-20T12:31:46;102035.31;;;20.58;51.67
61018;BME280;48171;51.550;5.434;2023-05-20T12:34:12;102033.97;;;20.72;52.06
61018;BME280;48171;51.550;5.434;2023-05-20T12:36:37;102038.59;;;20.68;50.45
61018;BME280;48171;51.550;5.434;2023-05-20T12:39:02;102030.53;;;20.68;50.83
61018;BME280;48171;51.550;5.434;2023-05-20T12:41:28;102031.19;;;20.76;53.07
61018;BME280;48171;51.550;5.434;2023-05-20T12:43:53;102031.94;;;20.80;49.35
61018;BME280;48171;51.550;5.434;2023-05-20T12:46:19;102028.31;;;20.83;49.44
61018;BME280;48171;51.550;5.434;2023-05-20T12:48:44;102023.69;;;20.86;50.08
61018;BME280;48171;51.550;5.434;2023-05-20T12:51:09;102034.97;;;20.99;51.73
61018;BME280;48171;51.550;5.434;2023-05-20T12:53:35;102027.81;;;20.98;49.93
61018;BME280;48171;51.550;5.434;2023-05-20T12:56:00;102023.41;;;20.95;52.36